Lucky Lake, Canada
Current Conditions -  °F | °C
As of 10:00 PM on Friday 24 Oct 2014 (Local Time) from CYYN Reporting Station
Clear Clear  
Wind Chill: 28°   Ceiling: Unl
Heat Index: 36°   Visibility: 9mi
Dew Point: 28°   Wind: 10mph
Humidity: 75%   Direction: 230°SW
Pressure: 30.01"   Gusts: NA
Location:  50.98°N, 107.13°W
Report Text: CYYN 250400Z AUTO 23009KT 9SM CLR 02/M02 A3001 RMK SLP185
Loading
Personal Weather Stations






























Interactive Weather Map
Tropical Storm Tracking
New forecast layout! Learn more

10-Day Weather Forecast

Advertisements
Track Severe Weather on mobile